createdAt,value
2023-04-10T00:01:02.222Z,4.05
2023-04-10T00:03:31.494Z,4.03
2023-04-10T00:06:00.464Z,3.99
2023-04-10T00:08:29.002Z,3.33
2023-04-10T00:10:57.416Z,3.59
2023-04-10T00:13:26.189Z,3.94
2023-04-10T00:15:56.056Z,3.91
2023-04-10T00:18:24.487Z,3.84
2023-04-10T00:20:52.897Z,3.78
2023-04-10T00:23:21.658Z,3.72
2023-04-10T00:25:50.406Z,3.60
2023-04-10T00:28:19.150Z,3.53
2023-04-10T00:30:47.619Z,3.45
2023-04-10T00:33:17.547Z,3.39
2023-04-10T00:35:46.268Z,3.36
2023-04-10T00:38:15.135Z,3.38
2023-04-10T00:40:43.910Z,3.40
2023-04-10T00:43:12.801Z,3.39
2023-04-10T00:45:42.137Z,3.36
2023-04-10T00:48:10.819Z,3.07
2023-04-10T00:50:40.933Z,3.32
2023-04-10T00:53:09.665Z,3.34
2023-04-10T00:55:38.500Z,3.25
2023-04-10T00:58:07.545Z,3.34
2023-04-10T01:00:36.013Z,3.33
2023-04-10T01:03:05.538Z,3.28
2023-04-10T01:05:43.223Z,3.05
2023-04-10T01:08:27.851Z,3.29
2023-04-10T01:11:11.107Z,3.29
2023-04-10T01:13:51.958Z,3.28
2023-04-10T01:16:29.557Z,2.55
2023-04-10T01:19:12.807Z,3.09
2023-04-10T01:21:43.791Z,3.33
2023-04-10T01:24:35.514Z,3.31
2023-04-10T01:27:22.104Z,3.19
2023-04-10T01:29:58.617Z,3.30
2023-04-10T01:32:34.958Z,3.66
2023-04-10T01:35:08.667Z,3.70
2023-04-10T01:37:43.770Z,3.86
2023-04-10T01:40:17.560Z,3.94
2023-04-10T01:42:54.112Z,3.93
2023-04-10T01:45:29.937Z,3.99
2023-04-10T01:47:59.410Z,3.94
2023-04-10T01:50:31.263Z,3.74
2023-04-10T01:53:03.762Z,3.48
2023-04-10T01:55:34.604Z,3.43
2023-04-10T01:58:07.208Z,3.46
2023-04-10T02:00:42.972Z,3.39
2023-04-10T02:03:13.014Z,3.40
2023-04-10T02:05:58.084Z,3.44
2023-04-10T02:08:34.620Z,3.49
2023-04-10T02:11:19.581Z,3.28
2023-04-10T02:13:52.278Z,3.54
2023-04-10T02:16:24.790Z,3.67
2023-04-10T02:18:54.094Z,3.43
2023-04-10T02:21:23.111Z,3.98
2023-04-10T02:23:52.226Z,4.13
2023-04-10T02:26:21.136Z,4.23
2023-04-10T02:28:49.842Z,4.31
2023-04-10T02:31:18.904Z,4.42
2023-04-10T02:33:48.837Z,4.54
2023-04-10T02:36:17.308Z,4.68
2023-04-10T02:38:46.036Z,4.81
2023-04-10T02:41:15.727Z,4.89
2023-04-10T02:43:44.362Z,3.96
2023-04-10T02:46:13.164Z,5.12
2023-04-10T02:48:42.026Z,4.71
2023-04-10T02:51:11.837Z,5.26
2023-04-10T02:53:40.425Z,5.26
2023-04-10T02:56:11.777Z,5.11
2023-04-10T02:58:45.453Z,5.40
2023-04-10T03:01:16.202Z,5.36
2023-04-10T03:03:46.650Z,5.37
2023-04-10T03:06:26.217Z,5.41
2023-04-10T03:08:56.277Z,5.49
2023-04-10T03:11:24.734Z,5.38
2023-04-10T03:13:53.239Z,5.43
2023-04-10T03:16:21.902Z,5.64
2023-04-10T03:18:50.803Z,5.63
2023-04-10T03:21:19.296Z,5.66
2023-04-10T03:23:49.138Z,5.68
2023-04-10T03:26:17.824Z,5.74
2023-04-10T03:28:46.567Z,5.85
2023-04-10T03:31:15.513Z,5.98
2023-04-10T03:33:46.354Z,6.06
2023-04-10T03:36:15.175Z,6.07
2023-04-10T03:38:43.930Z,5.78
2023-04-10T03:41:13.763Z,6.16
2023-04-10T03:43:42.544Z,6.27
2023-04-10T03:46:11.116Z,6.29
2023-04-10T03:48:43.633Z,6.32
2023-04-10T03:51:12.404Z,6.13
2023-04-10T03:53:40.840Z,6.38
2023-04-10T03:56:15.897Z,6.41
2023-04-10T03:58:45.234Z,6.45
2023-04-10T04:01:15.754Z,6.46
2023-04-10T04:04:07.139Z,6.39
2023-04-10T04:07:08.932Z,6.47
2023-04-10T04:09:56.533Z,6.55
2023-04-10T04:12:53.035Z,6.59
2023-04-10T04:15:38.296Z,6.62
2023-04-10T04:18:18.701Z,6.68
2023-04-10T04:20:51.204Z,6.71
2023-04-10T04:23:36.675Z,6.72
2023-04-10T04:26:27.314Z,6.74
2023-04-10T04:29:26.396Z,6.72
2023-04-10T04:32:07.660Z,6.71
2023-04-10T04:34:42.211Z,6.77
2023-04-10T04:37:37.396Z,6.71
2023-04-10T04:40:26.045Z,6.57
2023-04-10T04:43:06.490Z,6.45
2023-04-10T04:45:54.865Z,6.37
2023-04-10T04:48:40.738Z,6.35
2023-04-10T04:51:28.050Z,6.33
2023-04-10T04:54:25.775Z,6.29
2023-04-10T04:57:14.194Z,6.19
2023-04-10T05:00:07.651Z,6.36
2023-04-10T05:03:10.086Z,6.37
2023-04-10T05:05:59.340Z,6.31
2023-04-10T05:08:54.087Z,6.24
2023-04-10T05:11:25.642Z,6.21
2023-04-10T05:14:12.704Z,6.25
2023-04-10T05:17:02.939Z,6.30
2023-04-10T05:20:07.152Z,6.11
2023-04-10T05:23:01.538Z,6.22
2023-04-10T05:25:52.885Z,6.18
2023-04-10T05:28:41.565Z,6.16
2023-04-10T05:31:25.703Z,6.15
2023-04-10T05:34:12.810Z,6.16
2023-04-10T05:37:01.046Z,6.24
2023-04-10T05:40:06.137Z,5.84
2023-04-10T05:42:52.714Z,6.41
2023-04-10T05:45:30.142Z,6.38
2023-04-10T05:48:17.277Z,6.53
2023-04-10T05:51:11.637Z,6.58
2023-04-10T05:53:59.270Z,6.68
2023-04-10T05:56:41.503Z,6.80
2023-04-10T05:59:29.982Z,6.91
2023-04-10T06:02:24.705Z,7.03
2023-04-10T06:04:53.865Z,7.08
2023-04-10T06:07:22.577Z,6.94
2023-04-10T06:09:52.334Z,7.23
2023-04-10T06:12:20.833Z,7.36
2023-04-10T06:14:49.777Z,7.46
2023-04-10T06:17:21.868Z,7.53
2023-04-10T06:19:50.546Z,7.63
2023-04-10T06:22:19.265Z,7.70
2023-04-10T06:24:47.749Z,7.78
2023-04-10T06:27:18.626Z,7.87
2023-04-10T06:29:48.313Z,7.99
2023-04-10T06:32:21.334Z,8.22
2023-04-10T06:34:49.968Z,8.22
2023-04-10T06:37:18.400Z,8.82
2023-04-10T06:39:47.712Z,9.11
2023-04-10T06:42:17.563Z,9.32
2023-04-10T06:44:57.840Z,9.54
2023-04-10T06:47:26.284Z,9.72
2023-04-10T06:49:54.893Z,9.69
2023-04-10T06:52:23.375Z,10.04
2023-04-10T06:54:51.797Z,10.22
2023-04-10T06:57:21.600Z,10.45
2023-04-10T06:59:50.067Z,10.65
2023-04-10T07:02:18.594Z,10.69
2023-04-10T07:04:47.121Z,10.71
2023-04-10T07:07:16.046Z,11.16
2023-04-10T07:09:44.898Z,11.34
2023-04-10T07:12:13.458Z,11.61
2023-04-10T07:14:43.452Z,11.77
2023-04-10T07:17:11.920Z,11.96
2023-04-10T07:19:40.311Z,12.15
2023-04-10T07:22:08.897Z,12.35
2023-04-10T07:24:37.420Z,12.46
2023-04-10T07:27:05.976Z,12.54
2023-04-10T07:29:34.407Z,12.55
2023-04-10T07:32:04.303Z,12.55
2023-04-10T07:34:32.928Z,12.38
2023-04-10T07:37:01.423Z,12.89
2023-04-10T07:39:29.847Z,13.01
2023-04-10T07:41:58.301Z,13.22
2023-04-10T07:44:28.670Z,13.50
2023-04-10T07:46:57.142Z,13.48
2023-04-10T07:49:27.203Z,13.54
2023-04-10T07:51:55.857Z,13.57
2023-04-10T07:54:24.312Z,13.49
2023-04-10T07:56:54.189Z,13.63
2023-04-10T07:59:22.577Z,13.82
2023-04-10T08:01:51.037Z,13.89
2023-04-10T08:04:19.690Z,13.92
2023-04-10T08:06:50.646Z,14.07
2023-04-10T08:09:19.088Z,13.99
2023-04-10T08:12:08.374Z,14.28
2023-04-10T08:14:36.916Z,14.46
2023-04-10T08:17:05.569Z,14.58
2023-04-10T08:19:34.033Z,14.81
2023-04-10T08:22:03.912Z,14.91
2023-04-10T08:24:32.342Z,14.95
2023-04-10T08:27:01.795Z,15.16
2023-04-10T08:29:30.383Z,15.23
2023-04-10T08:32:01.499Z,15.13
2023-04-10T08:34:29.892Z,15.03
2023-04-10T08:36:58.811Z,15.26
2023-04-10T08:39:28.904Z,15.29
2023-04-10T08:41:57.508Z,15.36
2023-04-10T08:44:25.971Z,15.50
2023-04-10T08:46:56.705Z,15.05
2023-04-10T08:49:33.674Z,15.05
2023-04-10T08:52:07.911Z,15.05
2023-04-10T08:54:41.608Z,14.59
2023-04-10T08:57:17.701Z,14.25
2023-04-10T08:59:46.193Z,13.97
2023-04-10T09:02:15.029Z,13.82
2023-04-10T09:04:50.153Z,13.80
2023-04-10T09:07:19.042Z,13.79
2023-04-10T09:09:48.812Z,14.21
2023-04-10T09:12:18.420Z,14.25
2023-04-10T09:14:48.765Z,13.86
2023-04-10T09:17:20.004Z,13.49
2023-04-10T09:19:50.584Z,13.10
2023-04-10T09:22:19.591Z,12.85
2023-04-10T09:24:49.424Z,12.56
2023-04-10T09:27:32.806Z,12.31
2023-04-10T09:30:01.849Z,12.24
2023-04-10T09:32:42.883Z,11.96
2023-04-10T09:35:13.905Z,12.01
2023-04-10T09:37:45.108Z,12.12
2023-04-10T09:40:25.955Z,12.17
2023-04-10T09:42:55.980Z,12.15
2023-04-10T09:45:27.113Z,12.06
2023-04-10T09:48:05.041Z,12.16
2023-04-10T09:50:39.925Z,12.05
2023-04-10T09:53:09.477Z,12.25
2023-04-10T09:55:40.106Z,12.34
2023-04-10T09:58:10.125Z,12.35
2023-04-10T10:00:42.722Z,12.34
2023-04-10T10:03:14.613Z,12.23
2023-04-10T10:05:45.901Z,12.39
2023-04-10T10:11:03.759Z,12.51
2023-04-10T10:13:45.661Z,12.62
2023-04-10T10:16:22.653Z,12.55
2023-04-10T10:19:02.424Z,12.57
2023-04-10T10:21:34.128Z,12.90
2023-04-10T10:24:08.385Z,12.97
2023-04-10T10:26:41.737Z,12.83
2023-04-10T10:29:13.413Z,12.96
2023-04-10T10:31:42.963Z,13.24
2023-04-10T10:34:11.442Z,13.30
2023-04-10T10:36:41.805Z,13.32
2023-04-10T10:39:33.766Z,13.27
2023-04-10T10:42:15.771Z,12.74
2023-04-10T10:44:52.236Z,13.08
2023-04-10T10:47:28.372Z,13.27
2023-04-10T10:49:59.674Z,13.37
2023-04-10T10:52:49.794Z,13.32
2023-04-10T10:55:37.769Z,13.51
2023-04-10T10:58:09.455Z,13.29
2023-04-10T11:01:10.279Z,13.39
2023-04-10T11:03:39.938Z,13.43
2023-04-10T11:06:12.321Z,13.52
2023-04-10T11:08:45.808Z,13.62
2023-04-10T11:11:17.825Z,13.50
2023-04-10T11:14:20.253Z,13.60
2023-04-10T11:16:49.421Z,13.78
2023-04-10T11:19:22.829Z,13.93
2023-04-10T11:22:08.005Z,13.62
2023-04-10T11:25:00.536Z,14.07
2023-04-10T11:27:49.202Z,14.19
2023-04-10T11:30:33.704Z,14.20
2023-04-10T11:33:04.153Z,14.25
2023-04-10T11:35:34.160Z,14.35
2023-04-10T11:38:17.991Z,14.32
2023-04-10T11:41:06.864Z,14.53
2023-04-10T11:43:35.968Z,14.36
2023-04-10T11:46:08.628Z,14.81
2023-04-10T11:48:38.572Z,14.94
2023-04-10T11:51:13.027Z,14.86
2023-04-10T11:53:42.646Z,14.95
2023-04-10T11:56:22.533Z,15.03
2023-04-10T11:58:54.971Z,15.07
2023-04-10T12:01:25.557Z,15.14
2023-04-10T12:03:54.259Z,15.14
2023-04-10T12:06:23.397Z,15.13
2023-04-10T12:08:52.024Z,15.08
2023-04-10T12:11:22.478Z,15.13
2023-04-10T12:13:54.354Z,15.16
2023-04-10T12:16:26.567Z,15.14
2023-04-10T12:18:55.950Z,15.06
2023-04-10T12:21:24.572Z,15.40
2023-04-10T12:23:53.179Z,15.45
2023-04-10T12:26:22.396Z,15.07
2023-04-10T12:28:57.367Z,15.25
2023-04-10T12:31:32.861Z,15.22
2023-04-10T12:34:05.673Z,15.26
2023-04-10T12:36:35.295Z,15.33
2023-04-10T12:39:06.274Z,15.59
2023-04-10T12:41:36.185Z,15.66
2023-04-10T12:44:13.036Z,15.67
2023-04-10T12:46:44.557Z,15.71
2023-04-10T12:49:15.673Z,15.74
2023-04-10T12:51:49.113Z,15.90
2023-04-10T12:54:37.452Z,16.07
2023-04-10T12:57:07.188Z,16.35
2023-04-10T12:59:35.576Z,16.40
2023-04-10T13:02:05.475Z,16.42
2023-04-10T13:04:34.078Z,16.54
2023-04-10T13:07:02.991Z,16.57
2023-04-10T13:09:31.593Z,16.41
2023-04-10T13:12:00.046Z,16.39
2023-04-10T13:14:28.470Z,16.17
2023-04-10T13:16:56.864Z,16.46
2023-04-10T13:19:26.730Z,16.43
2023-04-10T13:21:55.268Z,16.49
2023-04-10T13:24:23.786Z,16.50
2023-04-10T13:26:52.314Z,16.50
2023-04-10T13:29:20.755Z,16.52
2023-04-10T13:31:50.226Z,16.49
2023-04-10T13:34:18.713Z,16.52
2023-04-10T13:36:51.470Z,16.48
2023-04-10T13:39:20.082Z,16.54
2023-04-10T13:41:48.465Z,16.76
2023-04-10T13:44:17.030Z,17.05
2023-04-10T13:46:45.587Z,17.18
2023-04-10T13:49:17.137Z,17.17
2023-04-10T13:51:47.824Z,17.29
2023-04-10T13:54:17.071Z,17.31
2023-04-10T13:56:46.523Z,17.20
2023-04-10T13:59:15.409Z,16.93
2023-04-10T14:01:43.904Z,16.77
2023-04-10T14:04:12.401Z,16.55
2023-04-10T14:06:40.870Z,16.54
2023-04-10T14:09:10.684Z,16.50
2023-04-10T14:11:39.192Z,16.49
2023-04-10T14:14:07.700Z,16.40
2023-04-10T14:16:36.298Z,16.53
2023-04-10T14:19:05.067Z,16.67
2023-04-10T14:21:33.583Z,16.60
2023-04-10T14:24:01.972Z,16.63
2023-04-10T14:26:31.957Z,16.77
2023-04-10T14:29:00.445Z,17.00
2023-04-10T14:31:29.669Z,17.22
2023-04-10T14:33:58.226Z,17.12
2023-04-10T14:36:28.832Z,17.38
2023-04-10T14:38:57.696Z,17.44
2023-04-10T14:41:26.527Z,17.81
2023-04-10T14:43:56.852Z,18.26
2023-04-10T14:46:26.615Z,18.40
2023-04-10T14:48:55.936Z,18.64
2023-04-10T14:51:24.832Z,18.70
2023-04-10T14:53:53.425Z,18.62
2023-04-10T14:56:22.045Z,18.48
2023-04-10T14:59:05.747Z,18.50
2023-04-10T15:01:36.763Z,18.70
2023-04-10T15:04:05.779Z,18.96
2023-04-10T15:06:34.950Z,18.73
2023-04-10T15:09:05.182Z,18.61
2023-04-10T15:11:34.516Z,18.30
2023-04-10T15:14:03.425Z,17.92
2023-04-10T15:16:32.272Z,17.71
2023-04-10T15:19:02.696Z,17.56
2023-04-10T15:21:31.611Z,17.53
2023-04-10T15:24:01.172Z,17.46
2023-04-10T15:26:29.695Z,17.38
2023-04-10T15:28:58.227Z,17.25
2023-04-10T15:31:26.718Z,17.21
2023-04-10T15:33:55.427Z,17.24
2023-04-10T15:36:25.686Z,17.41
2023-04-10T15:38:54.125Z,17.75
2023-04-10T15:41:23.002Z,18.05
2023-04-10T15:43:51.448Z,18.10
2023-04-10T15:46:19.933Z,18.02
2023-04-10T15:48:48.425Z,18.20
2023-04-10T15:51:16.824Z,18.05
2023-04-10T15:53:46.668Z,17.77
2023-04-10T15:56:16.148Z,17.49
2023-04-10T15:58:44.772Z,17.22
2023-04-10T16:01:13.311Z,16.88
2023-04-10T16:03:41.878Z,16.61
2023-04-10T16:06:10.764Z,16.27
2023-04-10T16:08:39.196Z,16.00
2023-04-10T16:11:10.717Z,15.82
2023-04-10T16:13:42.226Z,15.72
2023-04-10T16:16:16.094Z,15.74
2023-04-10T16:18:46.505Z,15.76
2023-04-10T16:21:15.462Z,15.54
2023-04-10T16:23:44.078Z,15.49
2023-04-10T16:26:16.545Z,15.67
2023-04-10T16:28:45.045Z,15.70
2023-04-10T16:31:13.489Z,15.54
2023-04-10T16:33:42.840Z,15.39
2023-04-10T16:36:11.744Z,14.95
2023-04-10T16:38:40.551Z,15.00
2023-04-10T16:41:17.011Z,14.72
2023-04-10T16:43:45.666Z,15.09
2023-04-10T16:46:16.209Z,15.01
2023-04-10T16:48:45.422Z,14.32
2023-04-10T16:51:17.847Z,14.97
2023-04-10T16:53:46.773Z,14.94
2023-04-10T16:56:17.350Z,14.90
2023-04-10T16:58:47.383Z,14.62
2023-04-10T17:01:18.877Z,14.69
2023-04-10T17:03:48.697Z,14.90
2023-04-10T17:06:17.886Z,14.81
2023-04-10T17:08:46.816Z,14.93
2023-04-10T17:11:17.239Z,14.77
2023-04-10T17:13:47.578Z,14.90
2023-04-10T17:16:16.535Z,14.82
2023-04-10T17:18:45.410Z,14.75
2023-04-10T17:21:14.806Z,14.64
2023-04-10T17:23:43.679Z,14.48
2023-04-10T17:26:17.015Z,14.26
2023-04-10T17:28:46.423Z,14.16
2023-04-10T17:31:16.379Z,13.99
2023-04-10T17:33:45.217Z,13.87
2023-04-10T17:36:14.505Z,13.75
2023-04-10T17:38:43.744Z,13.64
2023-04-10T17:41:17.154Z,13.50
2023-04-10T17:43:45.701Z,13.38
2023-04-10T17:46:15.801Z,13.19
2023-04-10T17:48:45.533Z,12.96
2023-04-10T17:51:14.983Z,12.92
2023-04-10T17:53:43.661Z,12.64
2023-04-10T17:56:20.809Z,12.63
2023-04-10T17:58:49.831Z,12.28
2023-04-10T18:01:27.555Z,12.39
2023-04-10T18:03:56.485Z,12.09
2023-04-10T18:06:25.872Z,12.20
2023-04-10T18:08:54.661Z,12.17
2023-04-10T18:11:25.422Z,12.06
2023-04-10T18:13:54.005Z,11.88
2023-04-10T18:16:22.599Z,11.88
2023-04-10T18:18:51.115Z,11.21
2023-04-10T18:21:20.038Z,11.72
2023-04-10T18:23:48.727Z,11.59
2023-04-10T18:26:20.715Z,11.50
2023-04-10T18:28:52.411Z,11.40
2023-04-10T18:31:21.155Z,11.34
2023-04-10T18:34:03.793Z,11.29
2023-04-10T18:36:36.340Z,11.33
2023-04-10T18:39:05.451Z,11.30
2023-04-10T18:41:34.403Z,11.08
2023-04-10T18:44:05.868Z,11.11
2023-04-10T18:46:38.316Z,11.14
2023-04-10T18:49:07.715Z,11.01
2023-04-10T18:51:37.532Z,10.87
2023-04-10T18:54:07.739Z,10.77
2023-04-10T18:56:38.253Z,10.82
2023-04-10T18:59:08.144Z,10.84
2023-04-10T19:01:36.765Z,10.82
2023-04-10T19:04:05.794Z,10.41
2023-04-10T19:06:36.888Z,10.75
2023-04-10T19:09:05.832Z,10.67
2023-04-10T19:11:34.391Z,10.57
2023-04-10T19:14:03.146Z,10.46
2023-04-10T19:19:07.268Z,10.19
2023-04-10T19:21:35.801Z,10.36
2023-04-10T19:24:04.348Z,10.34
2023-04-10T19:26:33.162Z,10.27
2023-04-10T19:29:01.627Z,10.13
2023-04-10T19:31:30.933Z,10.06
2023-04-10T19:34:30.772Z,10.09
2023-04-10T19:36:59.798Z,10.00
2023-04-10T19:39:31.201Z,9.94
2023-04-10T19:41:59.735Z,9.91
2023-04-10T19:44:28.697Z,9.99
2023-04-10T19:46:57.264Z,9.98
2023-04-10T19:49:29.355Z,9.93
2023-04-10T19:51:59.387Z,9.82
2023-04-10T19:54:28.218Z,9.73
2023-04-10T19:56:57.952Z,9.67
2023-04-10T19:59:26.793Z,9.69
2023-04-10T20:01:55.960Z,9.69
2023-04-10T20:04:24.946Z,9.69
2023-04-10T20:06:53.783Z,9.72
2023-04-10T20:09:23.717Z,9.73
2023-04-10T20:11:52.156Z,9.76
2023-04-10T20:14:21.837Z,9.70
2023-04-10T20:16:50.848Z,9.65
2023-04-10T20:19:19.827Z,9.67
2023-04-10T20:21:48.519Z,9.73
2023-04-10T20:24:16.996Z,9.70
2023-04-10T20:26:46.908Z,9.70
2023-04-10T20:29:15.596Z,9.62
2023-04-10T20:31:44.449Z,9.60
2023-04-10T20:34:13.346Z,9.57
2023-04-10T20:36:42.142Z,9.55
2023-04-10T20:39:10.924Z,9.55
2023-04-10T20:41:39.366Z,9.56
2023-04-10T20:44:09.233Z,9.55
2023-04-10T20:46:37.751Z,9.36
2023-04-10T20:49:06.528Z,9.54
2023-04-10T20:51:37.262Z,9.52
2023-04-10T20:54:06.975Z,9.59
2023-04-10T20:56:42.722Z,9.63
2023-04-10T20:59:13.370Z,9.64
2023-04-10T21:01:41.973Z,9.62
2023-04-10T21:04:10.867Z,9.59
2023-04-10T21:06:39.517Z,9.57
2023-04-10T21:09:08.182Z,9.57
2023-04-10T21:11:36.931Z,9.55
2023-04-10T21:14:05.638Z,9.56
2023-04-10T21:16:40.498Z,9.57
2023-04-10T21:19:09.322Z,9.61
2023-04-10T21:21:39.145Z,9.62
2023-04-10T21:24:07.856Z,9.67
2023-04-10T21:26:36.337Z,9.66
2023-04-10T21:29:04.847Z,9.61
2023-04-10T21:31:34.680Z,9.39
2023-04-10T21:34:03.313Z,9.25
2023-04-10T21:36:32.642Z,9.13
2023-04-10T21:39:01.442Z,9.41
2023-04-10T21:41:29.992Z,9.34
2023-04-10T21:44:00.384Z,9.32
2023-04-10T21:46:29.440Z,9.29
2023-04-10T21:48:59.460Z,9.21
2023-04-10T21:51:29.135Z,9.14
2023-04-10T21:53:57.948Z,9.08
2023-04-10T21:56:26.844Z,9.07
2023-04-10T21:58:55.967Z,9.09
2023-04-10T22:01:24.900Z,9.12
2023-04-10T22:03:54.299Z,9.17
2023-04-10T22:06:24.241Z,8.90
2023-04-10T22:08:52.903Z,9.07
2023-04-10T22:11:21.887Z,9.26
2023-04-10T22:13:50.693Z,9.27
2023-04-10T22:16:19.399Z,9.28
2023-04-10T22:18:48.153Z,9.25
2023-04-10T22:21:16.590Z,9.24
2023-04-10T22:23:46.401Z,9.33
2023-04-10T22:26:15.175Z,9.36
2023-04-10T22:28:43.887Z,9.37
2023-04-10T22:31:17.213Z,9.39
2023-04-10T22:33:46.085Z,9.38
2023-04-10T22:36:14.833Z,9.45
2023-04-10T22:38:45.002Z,9.46
2023-04-10T22:41:13.721Z,9.43
2023-04-10T22:43:42.256Z,9.28
2023-04-10T22:46:13.128Z,9.28
2023-04-10T22:48:41.843Z,8.61
2023-04-10T22:51:12.188Z,9.39
2023-04-10T22:53:41.260Z,9.34
2023-04-10T22:56:12.470Z,8.85
2023-04-10T22:58:41.911Z,9.23
2023-04-10T23:01:11.860Z,9.13
2023-04-10T23:03:40.643Z,9.10
2023-04-10T23:06:10.305Z,9.05
2023-04-10T23:08:39.084Z,8.94
2023-04-10T23:11:08.295Z,8.82
2023-04-10T23:13:38.137Z,8.70
2023-04-10T23:16:07.582Z,8.67
2023-04-10T23:18:37.505Z,8.67
2023-04-10T23:21:07.769Z,8.65
2023-04-10T23:23:36.537Z,8.59
2023-04-10T23:26:05.083Z,8.56
2023-04-10T23:28:33.508Z,8.58
2023-04-10T23:31:03.328Z,8.51
2023-04-10T23:33:32.029Z,8.64
2023-04-10T23:36:00.782Z,8.60
2023-04-10T23:38:29.542Z,8.61
2023-04-10T23:40:58.316Z,8.54
2023-04-10T23:43:27.110Z,8.51
2023-04-10T23:45:55.852Z,8.52
2023-04-10T23:48:25.999Z,8.03
2023-04-10T23:51:05.353Z,8.35
2023-04-10T23:53:34.247Z,8.58
2023-04-10T23:56:03.315Z,8.64
2023-04-10T23:58:31.768Z,8.66
